createdAt,value
2023-11-29T00:00:46.562Z,-4.26
2023-11-29T00:16:07.763Z,-4.03
2023-11-29T00:31:10.713Z,-3.72
2023-11-29T00:46:13.378Z,-3.61
2023-11-29T01:01:17.562Z,-3.73
2023-11-29T01:16:20.254Z,-3.89
2023-11-29T01:31:26.595Z,-3.89
2023-11-29T01:46:29.724Z,-3.69
2023-11-29T02:01:47.358Z,-3.43
2023-11-29T02:16:50.153Z,-3.17
2023-11-29T02:31:52.786Z,-2.98
2023-11-29T02:46:55.535Z,-3.04
2023-11-29T03:01:58.522Z,-3.05
2023-11-29T03:17:01.312Z,-2.94
2023-11-29T03:32:05.231Z,-2.87
2023-11-29T03:47:08.233Z,-2.94
2023-11-29T04:02:11.121Z,-2.98
2023-11-29T04:17:14.378Z,-2.96
2023-11-29T04:32:17.099Z,-3.12
2023-11-29T04:47:20.020Z,-3.35
2023-11-29T05:02:24.061Z,-3.53
2023-11-29T05:17:26.911Z,-3.64
2023-11-29T05:32:29.955Z,-3.81
2023-11-29T05:47:32.826Z,-3.91
2023-11-29T06:02:36.598Z,-3.85
2023-11-29T06:17:39.950Z,-3.77
2023-11-29T06:32:43.641Z,-3.66
2023-11-29T06:47:48.299Z,-3.60
2023-11-29T07:02:51.233Z,-3.63
2023-11-29T07:17:54.486Z,-3.70
2023-11-29T07:32:57.619Z,-3.75
2023-11-29T07:48:14.855Z,-3.52
2023-11-29T08:03:17.653Z,-3.30
2023-11-29T08:18:20.745Z,-3.16
2023-11-29T08:33:23.381Z,-3.02
2023-11-29T08:48:26.161Z,-2.74
2023-11-29T09:03:28.902Z,-2.43
2023-11-29T09:33:50.024Z,-1.70
2023-11-29T09:48:53.474Z,-1.54
2023-11-29T10:04:07.012Z,-1.56
2023-11-29T10:19:11.281Z,-1.23
2023-11-29T10:34:19.909Z,-0.99
2023-11-29T10:49:48.149Z,-0.92
2023-11-29T11:05:12.284Z,-0.71
2023-11-29T11:35:37.545Z,-0.86
2023-11-29T11:50:41.027Z,-0.80
2023-11-29T12:05:45.262Z,-0.58
2023-11-29T12:20:50.284Z,-0.10
2023-11-29T12:51:14.681Z,-0.40
2023-11-29T13:06:17.768Z,-0.50
2023-11-29T13:36:40.091Z,-0.78
2023-11-29T13:51:43.489Z,-0.88
2023-11-29T14:07:01.010Z,-1.03
2023-11-29T14:22:04.067Z,-1.07
2023-11-29T14:52:24.450Z,-1.32
2023-11-29T15:07:27.872Z,-1.42
2023-11-29T15:22:30.641Z,-1.43
2023-11-29T15:37:33.643Z,-1.42
2023-11-29T15:52:37.832Z,-1.43
2023-11-29T16:07:55.147Z,-1.43
2023-11-29T16:24:27.347Z,-1.42
2023-11-29T16:39:30.060Z,-1.53
2023-11-29T16:54:33.010Z,-1.53
2023-11-29T17:09:35.669Z,-1.45
2023-11-29T17:24:38.349Z,-1.37
2023-11-29T17:39:45.143Z,-1.41
2023-11-29T17:54:48.614Z,-1.48
2023-11-29T18:09:51.274Z,-1.50
2023-11-29T18:40:12.662Z,-1.67
2023-11-29T18:55:15.721Z,-1.72
2023-11-29T19:10:18.921Z,-1.75
2023-11-29T19:25:21.610Z,-1.77
2023-11-29T19:40:24.215Z,-1.80
2023-11-29T19:55:27.973Z,-1.80
2023-11-29T20:10:32.684Z,-1.74
2023-11-29T20:25:49.716Z,-1.68
2023-11-29T21:18:50.519Z,-1.76
2023-11-29T21:33:53.774Z,-1.77
2023-11-29T22:19:31.099Z,-1.73
2023-11-29T22:34:33.784Z,-1.67
2023-11-29T22:49:36.451Z,-1.59
2023-11-29T23:04:53.878Z,-1.54
2023-11-29T23:19:56.662Z,-1.48
2023-11-29T23:34:59.505Z,-1.45
2023-11-29T23:50:02.160Z,-1.41
